sensor_id;sensor_type;location;lat;lon;timestamp;temperature;humidity
32694;DHT22;19084;44.716;10.218;2022-11-14T00:00:44;11.30;99.90
32694;DHT22;19084;44.716;10.218;2022-11-14T00:03:32;11.30;99.90
32694;DHT22;19084;44.716;10.218;2022-11-14T00:06:19;11.30;99.90
32694;DHT22;19084;44.716;10.218;2022-11-14T00:09:08;11.30;99.90
32694;DHT22;19084;44.716;10.218;2022-11-14T00:11:56;11.30;99.90
32694;DHT22;19084;44.716;10.218;2022-11-14T00:14:44;11.30;99.90
32694;DHT22;19084;44.716;10.218;2022-11-14T00:17:32;11.20;99.90
32694;DHT22;19084;44.716;10.218;2022-11-14T00:20:20;11.20;99.90
32694;DHT22;19084;44.716;10.218;2022-11-14T00:23:09;11.20;99.90
32694;DHT22;19084;44.716;10.218;2022-11-14T00:25:57;11.20;99.90
32694;DHT22;19084;44.716;10.218;2022-11-14T00:28:45;11.20;99.90
32694;DHT22;19084;44.716;10.218;2022-11-14T00:31:33;11.20;99.90
32694;DHT22;19084;44.716;10.218;2022-11-14T00:34:21;11.20;99.90
32694;DHT22;19084;44.716;10.218;2022-11-14T00:37:10;11.20;99.90
32694;DHT22;19084;44.716;10.218;2022-11-14T00:39:58;11.10;99.90
32694;DHT22;19084;44.716;10.218;2022-11-14T00:42:46;11.20;99.90
32694;DHT22;19084;44.716;10.218;2022-11-14T00:45:34;11.20;99.90
32694;DHT22;19084;44.716;10.218;2022-11-14T00:48:22;11.10;99.90
32694;DHT22;19084;44.716;10.218;2022-11-14T00:51:10;11.10;99.90
32694;DHT22;19084;44.716;10.218;2022-11-14T00:53:59;11.10;99.90
32694;DHT22;19084;44.716;10.218;2022-11-14T00:56:46;11.10;99.90
32694;DHT22;19084;44.716;10.218;2022-11-14T00:59:35;11.10;99.90
32694;DHT22;19084;44.716;10.218;2022-11-14T01:02:23;11.10;99.90
32694;DHT22;19084;44.716;10.218;2022-11-14T01:05:12;11.10;99.90
32694;DHT22;19084;44.716;10.218;2022-11-14T01:07:59;11.10;99.90
32694;DHT22;19084;44.716;10.218;2022-11-14T01:10:49;11.10;99.90
32694;DHT22;19084;44.716;10.218;2022-11-14T01:13:38;11.10;99.90
32694;DHT22;19084;44.716;10.218;2022-11-14T01:16:27;11.10;99.90
32694;DHT22;19084;44.716;10.218;2022-11-14T01:19:15;11.10;99.90
32694;DHT22;19084;44.716;10.218;2022-11-14T01:22:03;11.10;99.90
32694;DHT22;19084;44.716;10.218;2022-11-14T01:24:53;11.10;99.90
32694;DHT22;19084;44.716;10.218;2022-11-14T01:27:41;11.10;99.90
32694;DHT22;19084;44.716;10.218;2022-11-14T01:30:29;11.20;99.90
32694;DHT22;19084;44.716;10.218;2022-11-14T01:33:18;11.20;99.90
32694;DHT22;19084;44.716;10.218;2022-11-14T01:36:07;11.20;99.90
32694;DHT22;19084;44.716;10.218;2022-11-14T01:38:55;11.20;99.90
32694;DHT22;19084;44.716;10.218;2022-11-14T01:41:43;11.10;99.90
32694;DHT22;19084;44.716;10.218;2022-11-14T01:44:49;11.10;99.90
32694;DHT22;19084;44.716;10.218;2022-11-14T01:47:39;11.10;99.90
32694;DHT22;19084;44.716;10.218;2022-11-14T01:50:28;11.10;99.90
32694;DHT22;19084;44.716;10.218;2022-11-14T01:53:16;11.10;99.90
32694;DHT22;19084;44.716;10.218;2022-11-14T01:56:05;11.10;99.90
32694;DHT22;19084;44.716;10.218;2022-11-14T01:59:08;11.10;99.90
32694;DHT22;19084;44.716;10.218;2022-11-14T02:02:01;11.00;99.90
32694;DHT22;19084;44.716;10.218;2022-11-14T02:05:05;11.00;99.90
32694;DHT22;19084;44.716;10.218;2022-11-14T02:07:54;11.00;99.90
32694;DHT22;19084;44.716;10.218;2022-11-14T02:10:43;11.00;99.90
32694;DHT22;19084;44.716;10.218;2022-11-14T02:13:31;11.00;99.90
32694;DHT22;19084;44.716;10.218;2022-11-14T02:16:20;11.10;99.90
32694;DHT22;19084;44.716;10.218;2022-11-14T02:19:09;11.10;99.90
32694;DHT22;19084;44.716;10.218;2022-11-14T02:21:57;11.10;99.90
32694;DHT22;19084;44.716;10.218;2022-11-14T02:24:45;11.10;99.90
32694;DHT22;19084;44.716;10.218;2022-11-14T02:27:34;11.10;99.90
32694;DHT22;19084;44.716;10.218;2022-11-14T02:30:23;11.10;99.90
32694;DHT22;19084;44.716;10.218;2022-11-14T02:33:10;11.10;99.90
32694;DHT22;19084;44.716;10.218;2022-11-14T02:35:59;11.10;99.90
32694;DHT22;19084;44.716;10.218;2022-11-14T02:38:47;11.10;99.90
32694;DHT22;19084;44.716;10.218;2022-11-14T02:41:35;11.10;99.90
32694;DHT22;19084;44.716;10.218;2022-11-14T02:44:23;11.00;99.90
32694;DHT22;19084;44.716;10.218;2022-11-14T02:47:11;11.00;99.90
32694;DHT22;19084;44.716;10.218;2022-11-14T02:50:00;10.90;99.90
32694;DHT22;19084;44.716;10.218;2022-11-14T02:52:48;10.90;99.90
32694;DHT22;19084;44.716;10.218;2022-11-14T02:55:36;11.00;99.90
32694;DHT22;19084;44.716;10.218;2022-11-14T02:58:24;11.00;99.90
32694;DHT22;19084;44.716;10.218;2022-11-14T03:01:12;10.90;99.90
32694;DHT22;19084;44.716;10.218;2022-11-14T03:04:08;10.90;99.90
32694;DHT22;19084;44.716;10.218;2022-11-14T03:06:56;10.90;99.90
32694;DHT22;19084;44.716;10.218;2022-11-14T03:09:44;10.90;99.90
32694;DHT22;19084;44.716;10.218;2022-11-14T03:12:32;10.80;99.90
32694;DHT22;19084;44.716;10.218;2022-11-14T03:15:21;10.80;99.90
32694;DHT22;19084;44.716;10.218;2022-11-14T03:18:09;10.80;99.90
32694;DHT22;19084;44.716;10.218;2022-11-14T03:21:04;10.80;99.90
32694;DHT22;19084;44.716;10.218;2022-11-14T03:23:53;10.90;99.90
32694;DHT22;19084;44.716;10.218;2022-11-14T03:26:43;10.90;99.90
32694;DHT22;19084;44.716;10.218;2022-11-14T03:29:31;10.90;99.90
32694;DHT22;19084;44.716;10.218;2022-11-14T03:32:20;10.90;99.90
32694;DHT22;19084;44.716;10.218;2022-11-14T03:35:10;10.80;99.90
32694;DHT22;19084;44.716;10.218;2022-11-14T03:37:58;10.80;99.90
32694;DHT22;19084;44.716;10.218;2022-11-14T03:40:46;10.80;99.90
32694;DHT22;19084;44.716;10.218;2022-11-14T03:43:34;10.80;99.90
32694;DHT22;19084;44.716;10.218;2022-11-14T03:46:22;10.80;99.90
32694;DHT22;19084;44.716;10.218;2022-11-14T03:49:10;10.80;99.90
32694;DHT22;19084;44.716;10.218;2022-11-14T03:51:59;10.70;99.90
32694;DHT22;19084;44.716;10.218;2022-11-14T03:54:47;10.70;99.90
32694;DHT22;19084;44.716;10.218;2022-11-14T03:57:35;10.70;99.90
32694;DHT22;19084;44.716;10.218;2022-11-14T04:00:23;10.70;99.90
32694;DHT22;19084;44.716;10.218;2022-11-14T04:03:14;10.70;99.90
32694;DHT22;19084;44.716;10.218;2022-11-14T04:06:02;10.70;99.90
32694;DHT22;19084;44.716;10.218;2022-11-14T04:08:51;10.70;99.90
32694;DHT22;19084;44.716;10.218;2022-11-14T04:11:39;10.70;99.90
32694;DHT22;19084;44.716;10.218;2022-11-14T04:14:28;10.60;99.90
32694;DHT22;19084;44.716;10.218;2022-11-14T04:17:16;10.60;99.90
32694;DHT22;19084;44.716;10.218;2022-11-14T04:20:05;10.70;99.90
32694;DHT22;19084;44.716;10.218;2022-11-14T04:22:53;10.60;99.90
32694;DHT22;19084;44.716;10.218;2022-11-14T04:25:43;10.60;99.90
32694;DHT22;19084;44.716;10.218;2022-11-14T04:28:31;10.60;99.90
32694;DHT22;19084;44.716;10.218;2022-11-14T04:31:20;10.60;99.90
32694;DHT22;19084;44.716;10.218;2022-11-14T04:34:09;10.60;99.90
32694;DHT22;19084;44.716;10.218;2022-11-14T04:36:56;10.60;99.90
32694;DHT22;19084;44.716;10.218;2022-11-14T04:39:44;10.60;99.90
32694;DHT22;19084;44.716;10.218;2022-11-14T04:42:32;10.60;99.90
32694;DHT22;19084;44.716;10.218;2022-11-14T04:45:21;10.60;99.90
32694;DHT22;19084;44.716;10.218;2022-11-14T04:48:09;10.50;99.90
32694;DHT22;19084;44.716;10.218;2022-11-14T04:50:58;10.50;99.90
32694;DHT22;19084;44.716;10.218;2022-11-14T04:53:46;10.60;99.90
32694;DHT22;19084;44.716;10.218;2022-11-14T04:56:34;10.60;99.90
32694;DHT22;19084;44.716;10.218;2022-11-14T04:59:22;10.60;99.90
32694;DHT22;19084;44.716;10.218;2022-11-14T05:02:10;10.70;99.90
32694;DHT22;19084;44.716;10.218;2022-11-14T05:04:59;10.70;99.90
32694;DHT22;19084;44.716;10.218;2022-11-14T05:07:47;10.70;99.90
32694;DHT22;19084;44.716;10.218;2022-11-14T05:10:35;10.70;99.90
32694;DHT22;19084;44.716;10.218;2022-11-14T05:13:24;10.60;99.90
32694;DHT22;19084;44.716;10.218;2022-11-14T05:16:12;10.60;99.90
32694;DHT22;19084;44.716;10.218;2022-11-14T05:19:00;10.70;99.90
32694;DHT22;19084;44.716;10.218;2022-11-14T05:21:48;10.70;99.90
32694;DHT22;19084;44.716;10.218;2022-11-14T05:24:36;10.70;99.90
32694;DHT22;19084;44.716;10.218;2022-11-14T05:27:25;10.70;99.90
32694;DHT22;19084;44.716;10.218;2022-11-14T05:30:14;10.70;99.90
32694;DHT22;19084;44.716;10.218;2022-11-14T05:33:03;10.70;99.90
32694;DHT22;19084;44.716;10.218;2022-11-14T05:35:51;10.70;99.90
32694;DHT22;19084;44.716;10.218;2022-11-14T05:38:39;10.70;99.90
32694;DHT22;19084;44.716;10.218;2022-11-14T05:41:27;10.70;99.90
32694;DHT22;19084;44.716;10.218;2022-11-14T05:44:14;10.70;99.90
32694;DHT22;19084;44.716;10.218;2022-11-14T05:47:02;10.70;99.90
32694;DHT22;19084;44.716;10.218;2022-11-14T05:49:51;10.70;99.90
32694;DHT22;19084;44.716;10.218;2022-11-14T05:52:41;10.70;99.90
32694;DHT22;19084;44.716;10.218;2022-11-14T05:55:29;10.80;99.90
32694;DHT22;19084;44.716;10.218;2022-11-14T05:58:18;10.80;99.90
32694;DHT22;19084;44.716;10.218;2022-11-14T06:03:57;10.70;99.90
32694;DHT22;19084;44.716;10.218;2022-11-14T06:06:46;10.70;99.90
32694;DHT22;19084;44.716;10.218;2022-11-14T06:09:34;10.80;99.90
32694;DHT22;19084;44.716;10.218;2022-11-14T06:12:22;10.80;99.90
32694;DHT22;19084;44.716;10.218;2022-11-14T06:15:10;10.70;99.90
32694;DHT22;19084;44.716;10.218;2022-11-14T06:17:59;10.80;99.90
32694;DHT22;19084;44.716;10.218;2022-11-14T06:20:47;10.80;99.90
32694;DHT22;19084;44.716;10.218;2022-11-14T06:23:35;10.80;99.90
32694;DHT22;19084;44.716;10.218;2022-11-14T06:26:26;10.80;99.90
32694;DHT22;19084;44.716;10.218;2022-11-14T06:29:16;10.80;99.90
32694;DHT22;19084;44.716;10.218;2022-11-14T06:32:06;10.80;99.90
32694;DHT22;19084;44.716;10.218;2022-11-14T06:34:55;10.80;99.90
32694;DHT22;19084;44.716;10.218;2022-11-14T06:37:43;10.80;99.90
32694;DHT22;19084;44.716;10.218;2022-11-14T06:40:31;10.90;99.90
32694;DHT22;19084;44.716;10.218;2022-11-14T06:43:21;10.90;99.90
32694;DHT22;19084;44.716;10.218;2022-11-14T06:46:12;10.90;99.90
32694;DHT22;19084;44.716;10.218;2022-11-14T06:49:00;10.90;99.90
32694;DHT22;19084;44.716;10.218;2022-11-14T06:51:48;10.90;99.90
32694;DHT22;19084;44.716;10.218;2022-11-14T06:54:39;10.90;99.90
32694;DHT22;19084;44.716;10.218;2022-11-14T06:57:27;10.90;99.90
32694;DHT22;19084;44.716;10.218;2022-11-14T07:00:16;10.90;99.90
32694;DHT22;19084;44.716;10.218;2022-11-14T07:03:04;10.90;99.90
32694;DHT22;19084;44.716;10.218;2022-11-14T07:05:57;10.90;99.90
32694;DHT22;19084;44.716;10.218;2022-11-14T07:08:46;10.90;99.90
32694;DHT22;19084;44.716;10.218;2022-11-14T07:11:34;10.90;99.90
32694;DHT22;19084;44.716;10.218;2022-11-14T07:14:22;10.90;99.90
32694;DHT22;19084;44.716;10.218;2022-11-14T07:17:10;11.00;99.90
32694;DHT22;19084;44.716;10.218;2022-11-14T07:19:59;11.00;99.90
32694;DHT22;19084;44.716;10.218;2022-11-14T07:22:46;11.00;99.90
32694;DHT22;19084;44.716;10.218;2022-11-14T07:25:35;11.00;99.90
32694;DHT22;19084;44.716;10.218;2022-11-14T07:28:23;11.00;99.90
32694;DHT22;19084;44.716;10.218;2022-11-14T07:31:15;11.00;99.90
32694;DHT22;19084;44.716;10.218;2022-11-14T07:34:03;11.00;99.90
32694;DHT22;19084;44.716;10.218;2022-11-14T07:36:53;11.00;99.90
32694;DHT22;19084;44.716;10.218;2022-11-14T07:39:41;11.00;99.90
32694;DHT22;19084;44.716;10.218;2022-11-14T07:42:29;11.10;99.90
32694;DHT22;19084;44.716;10.218;2022-11-14T07:45:17;11.10;99.90
32694;DHT22;19084;44.716;10.218;2022-11-14T07:48:11;11.10;99.90
32694;DHT22;19084;44.716;10.218;2022-11-14T07:51:06;11.10;99.90
32694;DHT22;19084;44.716;10.218;2022-11-14T07:53:56;11.20;99.90
32694;DHT22;19084;44.716;10.218;2022-11-14T07:56:44;11.20;99.90
32694;DHT22;19084;44.716;10.218;2022-11-14T07:59:31;11.20;99.90
32694;DHT22;19084;44.716;10.218;2022-11-14T08:02:19;11.30;99.90
32694;DHT22;19084;44.716;10.218;2022-11-14T08:05:08;11.40;99.90
32694;DHT22;19084;44.716;10.218;2022-11-14T08:07:56;11.50;99.90
32694;DHT22;19084;44.716;10.218;2022-11-14T08:10:44;11.50;99.90
32694;DHT22;19084;44.716;10.218;2022-11-14T08:13:34;11.60;99.90
32694;DHT22;19084;44.716;10.218;2022-11-14T08:16:22;11.70;99.90
32694;DHT22;19084;44.716;10.218;2022-11-14T08:19:10;11.70;99.90
32694;DHT22;19084;44.716;10.218;2022-11-14T08:21:58;11.80;99.90
32694;DHT22;19084;44.716;10.218;2022-11-14T08:24:46;11.80;99.90
32694;DHT22;19084;44.716;10.218;2022-11-14T08:27:34;11.70;99.90
32694;DHT22;19084;44.716;10.218;2022-11-14T08:30:22;11.70;99.90
32694;DHT22;19084;44.716;10.218;2022-11-14T08:33:10;11.70;99.90
32694;DHT22;19084;44.716;10.218;2022-11-14T08:36:01;11.80;99.90
32694;DHT22;19084;44.716;10.218;2022-11-14T08:38:51;11.80;99.90
32694;DHT22;19084;44.716;10.218;2022-11-14T08:41:47;11.80;99.90
32694;DHT22;19084;44.716;10.218;2022-11-14T08:44:35;11.90;99.90
32694;DHT22;19084;44.716;10.218;2022-11-14T08:47:23;11.80;99.90
32694;DHT22;19084;44.716;10.218;2022-11-14T08:50:11;11.90;99.90
32694;DHT22;19084;44.716;10.218;2022-11-14T08:53:00;11.90;99.90
32694;DHT22;19084;44.716;10.218;2022-11-14T08:55:50;11.90;99.90
32694;DHT22;19084;44.716;10.218;2022-11-14T08:58:38;12.00;99.90
32694;DHT22;19084;44.716;10.218;2022-11-14T09:01:26;12.10;99.90
32694;DHT22;19084;44.716;10.218;2022-11-14T09:04:14;12.20;99.90
32694;DHT22;19084;44.716;10.218;2022-11-14T09:07:03;12.30;99.90
32694;DHT22;19084;44.716;10.218;2022-11-14T09:09:53;12.40;99.90
32694;DHT22;19084;44.716;10.218;2022-11-14T09:12:41;12.40;99.90
32694;DHT22;19084;44.716;10.218;2022-11-14T09:15:30;12.60;99.90
32694;DHT22;19084;44.716;10.218;2022-11-14T09:18:18;12.70;99.90
32694;DHT22;19084;44.716;10.218;2022-11-14T09:21:07;12.70;99.90
32694;DHT22;19084;44.716;10.218;2022-11-14T09:23:55;12.80;99.90
32694;DHT22;19084;44.716;10.218;2022-11-14T09:26:51;12.90;99.90
32694;DHT22;19084;44.716;10.218;2022-11-14T09:29:44;13.10;99.90
32694;DHT22;19084;44.716;10.218;2022-11-14T09:32:32;13.20;99.90
32694;DHT22;19084;44.716;10.218;2022-11-14T09:35:22;13.20;99.90
32694;DHT22;19084;44.716;10.218;2022-11-14T09:38:11;13.30;99.90
32694;DHT22;19084;44.716;10.218;2022-11-14T09:44:24;13.50;99.90
32694;DHT22;19084;44.716;10.218;2022-11-14T09:47:17;13.70;99.90
32694;DHT22;19084;44.716;10.218;2022-11-14T09:53:08;13.80;99.90
32694;DHT22;19084;44.716;10.218;2022-11-14T09:55:57;13.90;99.90
32694;DHT22;19084;44.716;10.218;2022-11-14T09:58:46;14.00;99.90
32694;DHT22;19084;44.716;10.218;2022-11-14T10:05:00;14.10;99.90
32694;DHT22;19084;44.716;10.218;2022-11-14T10:08:16;14.00;99.90
32694;DHT22;19084;44.716;10.218;2022-11-14T10:11:12;14.00;99.90
32694;DHT22;19084;44.716;10.218;2022-11-14T10:26:40;14.00;99.90
32694;DHT22;19084;44.716;10.218;2022-11-14T10:35:42;13.70;99.90
32694;DHT22;19084;44.716;10.218;2022-11-14T10:38:40;13.60;99.90
32694;DHT22;19084;44.716;10.218;2022-11-14T10:41:33;13.50;99.90
32694;DHT22;19084;44.716;10.218;2022-11-14T10:44:52;13.30;99.90
32694;DHT22;19084;44.716;10.218;2022-11-14T10:47:50;13.30;99.90
32694;DHT22;19084;44.716;10.218;2022-11-14T10:50:52;13.30;99.90
32694;DHT22;19084;44.716;10.218;2022-11-14T10:53:48;13.30;99.90
32694;DHT22;19084;44.716;10.218;2022-11-14T10:56:48;13.40;99.90
32694;DHT22;19084;44.716;10.218;2022-11-14T10:59:36;13.50;99.90
32694;DHT22;19084;44.716;10.218;2022-11-14T11:02:24;13.50;99.90
32694;DHT22;19084;44.716;10.218;2022-11-14T11:05:19;13.60;99.90
32694;DHT22;19084;44.716;10.218;2022-11-14T11:08:10;13.60;99.90
32694;DHT22;19084;44.716;10.218;2022-11-14T11:11:35;13.60;99.90
32694;DHT22;19084;44.716;10.218;2022-11-14T11:14:28;13.60;99.90
32694;DHT22;19084;44.716;10.218;2022-11-14T11:17:19;13.60;99.90
32694;DHT22;19084;44.716;10.218;2022-11-14T11:20:29;13.80;99.90
32694;DHT22;19084;44.716;10.218;2022-11-14T11:23:24;13.90;99.90
32694;DHT22;19084;44.716;10.218;2022-11-14T11:26:31;14.00;99.90
32694;DHT22;19084;44.716;10.218;2022-11-14T11:29:19;14.00;99.90
32694;DHT22;19084;44.716;10.218;2022-11-14T11:32:09;14.20;99.90
32694;DHT22;19084;44.716;10.218;2022-11-14T11:35:00;14.20;99.90
32694;DHT22;19084;44.716;10.218;2022-11-14T11:37:53;14.20;99.90
32694;DHT22;19084;44.716;10.218;2022-11-14T11:40:44;14.10;99.90
32694;DHT22;19084;44.716;10.218;2022-11-14T11:43:43;14.00;99.90
32694;DHT22;19084;44.716;10.218;2022-11-14T11:46:52;13.80;99.90
32694;DHT22;19084;44.716;10.218;2022-11-14T11:55:55;13.60;99.90
32694;DHT22;19084;44.716;10.218;2022-11-14T11:58:54;13.50;99.90
32694;DHT22;19084;44.716;10.218;2022-11-14T12:01:45;13.40;99.90
32694;DHT22;19084;44.716;10.218;2022-11-14T12:04:34;13.40;99.90
32694;DHT22;19084;44.716;10.218;2022-11-14T12:07:36;13.40;99.90
32694;DHT22;19084;44.716;10.218;2022-11-14T12:10:30;13.40;99.90
32694;DHT22;19084;44.716;10.218;2022-11-14T12:13:36;13.40;99.90
32694;DHT22;19084;44.716;10.218;2022-11-14T12:26:35;13.50;99.90
32694;DHT22;19084;44.716;10.218;2022-11-14T12:32:32;13.50;99.90
32694;DHT22;19084;44.716;10.218;2022-11-14T12:35:27;13.40;99.90
32694;DHT22;19084;44.716;10.218;2022-11-14T12:38:18;13.40;99.90
32694;DHT22;19084;44.716;10.218;2022-11-14T12:41:08;13.60;99.90
32694;DHT22;19084;44.716;10.218;2022-11-14T12:47:21;14.10;99.90
32694;DHT22;19084;44.716;10.218;2022-11-14T12:50:28;14.20;99.90
32694;DHT22;19084;44.716;10.218;2022-11-14T12:53:37;14.10;99.90
32694;DHT22;19084;44.716;10.218;2022-11-14T13:08:36;13.70;99.90
32694;DHT22;19084;44.716;10.218;2022-11-14T13:14:51;13.60;99.90
32694;DHT22;19084;44.716;10.218;2022-11-14T13:21:25;13.60;99.90
32694;DHT22;19084;44.716;10.218;2022-11-14T13:27:49;13.60;99.90
32694;DHT22;19084;44.716;10.218;2022-11-14T13:37:47;13.60;99.90
32694;DHT22;19084;44.716;10.218;2022-11-14T13:41:04;13.60;99.90
32694;DHT22;19084;44.716;10.218;2022-11-14T13:44:31;13.60;99.90
32694;DHT22;19084;44.716;10.218;2022-11-14T13:50:29;13.70;99.90
32694;DHT22;19084;44.716;10.218;2022-11-14T13:53:22;13.60;99.90
32694;DHT22;19084;44.716;10.218;2022-11-14T14:02:15;13.50;99.90
32694;DHT22;19084;44.716;10.218;2022-11-14T14:05:24;13.50;99.90
32694;DHT22;19084;44.716;10.218;2022-11-14T14:11:36;13.50;99.90
32694;DHT22;19084;44.716;10.218;2022-11-14T14:17:48;13.50;99.90
32694;DHT22;19084;44.716;10.218;2022-11-14T14:23:58;13.50;99.90
32694;DHT22;19084;44.716;10.218;2022-11-14T14:27:15;13.50;99.90
32694;DHT22;19084;44.716;10.218;2022-11-14T14:30:10;13.50;99.90
32694;DHT22;19084;44.716;10.218;2022-11-14T14:33:15;13.60;99.90
32694;DHT22;19084;44.716;10.218;2022-11-14T14:36:14;13.50;99.90
32694;DHT22;19084;44.716;10.218;2022-11-14T14:39:16;13.60;99.90
32694;DHT22;19084;44.716;10.218;2022-11-14T14:42:09;13.50;99.90
32694;DHT22;19084;44.716;10.218;2022-11-14T14:45:02;13.50;99.90
32694;DHT22;19084;44.716;10.218;2022-11-14T14:50:53;13.50;99.90
32694;DHT22;19084;44.716;10.218;2022-11-14T14:53:51;13.40;99.90
32694;DHT22;19084;44.716;10.218;2022-11-14T14:56:53;13.40;99.90
32694;DHT22;19084;44.716;10.218;2022-11-14T14:59:42;13.40;99.90
32694;DHT22;19084;44.716;10.218;2022-11-14T15:02:32;13.40;99.90
32694;DHT22;19084;44.716;10.218;2022-11-14T15:05:26;13.40;99.90
32694;DHT22;19084;44.716;10.218;2022-11-14T15:08:17;13.40;99.90
32694;DHT22;19084;44.716;10.218;2022-11-14T15:11:06;13.40;99.90
32694;DHT22;19084;44.716;10.218;2022-11-14T15:13:56;13.40;99.90
32694;DHT22;19084;44.716;10.218;2022-11-14T15:16:47;13.30;99.90
32694;DHT22;19084;44.716;10.218;2022-11-14T15:19:43;13.30;99.90
32694;DHT22;19084;44.716;10.218;2022-11-14T15:22:35;13.20;99.90
32694;DHT22;19084;44.716;10.218;2022-11-14T15:25:24;13.20;99.90
32694;DHT22;19084;44.716;10.218;2022-11-14T15:28:18;13.10;99.90
32694;DHT22;19084;44.716;10.218;2022-11-14T15:31:15;13.10;99.90
32694;DHT22;19084;44.716;10.218;2022-11-14T15:40:20;12.90;99.90
32694;DHT22;19084;44.716;10.218;2022-11-14T15:46:39;12.80;99.90
32694;DHT22;19084;44.716;10.218;2022-11-14T15:49:28;12.80;99.90
32694;DHT22;19084;44.716;10.218;2022-11-14T15:52:23;12.70;99.90
32694;DHT22;19084;44.716;10.218;2022-11-14T15:55:17;12.70;99.90
32694;DHT22;19084;44.716;10.218;2022-11-14T15:58:08;12.60;99.90
32694;DHT22;19084;44.716;10.218;2022-11-14T16:01:22;12.50;99.90
32694;DHT22;19084;44.716;10.218;2022-11-14T16:04:18;12.40;99.90
32694;DHT22;19084;44.716;10.218;2022-11-14T16:07:11;12.30;99.90
32694;DHT22;19084;44.716;10.218;2022-11-14T16:10:01;12.20;99.90
32694;DHT22;19084;44.716;10.218;2022-11-14T16:12:50;12.10;99.90
32694;DHT22;19084;44.716;10.218;2022-11-14T16:15:39;12.00;99.90
32694;DHT22;19084;44.716;10.218;2022-11-14T16:18:27;12.00;99.90
32694;DHT22;19084;44.716;10.218;2022-11-14T16:21:16;11.90;99.90
32694;DHT22;19084;44.716;10.218;2022-11-14T16:24:14;11.90;99.90
32694;DHT22;19084;44.716;10.218;2022-11-14T16:27:02;11.80;99.90
32694;DHT22;19084;44.716;10.218;2022-11-14T16:29:51;11.80;99.90
32694;DHT22;19084;44.716;10.218;2022-11-14T16:32:43;11.80;99.90
32694;DHT22;19084;44.716;10.218;2022-11-14T16:35:35;11.80;99.90
32694;DHT22;19084;44.716;10.218;2022-11-14T16:38:26;11.80;99.90
32694;DHT22;19084;44.716;10.218;2022-11-14T16:41:15;11.70;99.90
32694;DHT22;19084;44.716;10.218;2022-11-14T16:44:13;11.70;99.90
32694;DHT22;19084;44.716;10.218;2022-11-14T16:47:03;11.70;99.90
32694;DHT22;19084;44.716;10.218;2022-11-14T16:49:54;11.70;99.90
32694;DHT22;19084;44.716;10.218;2022-11-14T16:52:42;11.70;99.90
32694;DHT22;19084;44.716;10.218;2022-11-14T16:55:32;11.70;99.90
32694;DHT22;19084;44.716;10.218;2022-11-14T16:58:23;11.60;99.90
32694;DHT22;19084;44.716;10.218;2022-11-14T17:01:14;11.60;99.90
32694;DHT22;19084;44.716;10.218;2022-11-14T17:04:08;11.50;99.90
32694;DHT22;19084;44.716;10.218;2022-11-14T17:06:56;11.50;99.90
32694;DHT22;19084;44.716;10.218;2022-11-14T17:09:44;11.40;99.90
32694;DHT22;19084;44.716;10.218;2022-11-14T17:12:33;11.40;99.90
32694;DHT22;19084;44.716;10.218;2022-11-14T17:15:21;11.40;99.90
32694;DHT22;19084;44.716;10.218;2022-11-14T17:18:09;11.30;99.90
32694;DHT22;19084;44.716;10.218;2022-11-14T17:20:57;11.30;99.90
32694;DHT22;19084;44.716;10.218;2022-11-14T17:23:48;11.20;99.90
32694;DHT22;19084;44.716;10.218;2022-11-14T17:26:42;11.20;99.90
32694;DHT22;19084;44.716;10.218;2022-11-14T17:29:30;11.20;99.90
32694;DHT22;19084;44.716;10.218;2022-11-14T17:32:20;11.20;99.90
32694;DHT22;19084;44.716;10.218;2022-11-14T17:35:10;11.10;99.90
32694;DHT22;19084;44.716;10.218;2022-11-14T17:37:58;11.20;99.90
32694;DHT22;19084;44.716;10.218;2022-11-14T17:40:47;11.20;99.90
32694;DHT22;19084;44.716;10.218;2022-11-14T17:43:36;11.10;99.90
32694;DHT22;19084;44.716;10.218;2022-11-14T17:46:28;11.20;99.90
32694;DHT22;19084;44.716;10.218;2022-11-14T17:49:16;11.20;99.90
32694;DHT22;19084;44.716;10.218;2022-11-14T17:52:05;11.20;99.90
32694;DHT22;19084;44.716;10.218;2022-11-14T17:54:53;11.20;99.90
32694;DHT22;19084;44.716;10.218;2022-11-14T17:57:44;11.30;99.90
32694;DHT22;19084;44.716;10.218;2022-11-14T18:00:34;11.30;99.90
32694;DHT22;19084;44.716;10.218;2022-11-14T18:03:26;11.30;99.90
32694;DHT22;19084;44.716;10.218;2022-11-14T18:06:18;11.30;99.90
32694;DHT22;19084;44.716;10.218;2022-11-14T18:09:07;11.30;99.90
32694;DHT22;19084;44.716;10.218;2022-11-14T18:12:01;11.30;99.90
32694;DHT22;19084;44.716;10.218;2022-11-14T18:14:52;11.40;99.90
32694;DHT22;19084;44.716;10.218;2022-11-14T18:17:43;11.30;99.90
32694;DHT22;19084;44.716;10.218;2022-11-14T18:20:36;11.40;99.90
32694;DHT22;19084;44.716;10.218;2022-11-14T18:23:25;11.30;99.90
32694;DHT22;19084;44.716;10.218;2022-11-14T18:26:15;11.30;99.90
32694;DHT22;19084;44.716;10.218;2022-11-14T18:29:05;11.30;99.90
32694;DHT22;19084;44.716;10.218;2022-11-14T18:31:54;11.30;99.90
32694;DHT22;19084;44.716;10.218;2022-11-14T18:34:41;11.20;99.90
32694;DHT22;19084;44.716;10.218;2022-11-14T18:37:32;11.20;99.90
32694;DHT22;19084;44.716;10.218;2022-11-14T18:40:20;11.20;99.90
32694;DHT22;19084;44.716;10.218;2022-11-14T18:43:09;11.20;99.90
32694;DHT22;19084;44.716;10.218;2022-11-14T18:48:56;11.20;99.90
32694;DHT22;19084;44.716;10.218;2022-11-14T18:51:44;11.10;99.90
32694;DHT22;19084;44.716;10.218;2022-11-14T18:54:32;11.10;99.90
32694;DHT22;19084;44.716;10.218;2022-11-14T18:57:21;11.00;99.90
32694;DHT22;19084;44.716;10.218;2022-11-14T19:00:11;11.00;99.90
32694;DHT22;19084;44.716;10.218;2022-11-14T19:03:02;11.00;99.90
32694;DHT22;19084;44.716;10.218;2022-11-14T19:05:52;10.90;99.90
32694;DHT22;19084;44.716;10.218;2022-11-14T19:08:41;10.80;99.90
32694;DHT22;19084;44.716;10.218;2022-11-14T19:11:30;10.80;99.90
32694;DHT22;19084;44.716;10.218;2022-11-14T19:14:34;10.80;99.90
32694;DHT22;19084;44.716;10.218;2022-11-14T19:17:22;10.70;99.90
32694;DHT22;19084;44.716;10.218;2022-11-14T19:20:11;10.70;99.90
32694;DHT22;19084;44.716;10.218;2022-11-14T19:23:01;10.70;99.90
32694;DHT22;19084;44.716;10.218;2022-11-14T19:25:49;10.60;99.90
32694;DHT22;19084;44.716;10.218;2022-11-14T19:28:37;10.60;99.90
32694;DHT22;19084;44.716;10.218;2022-11-14T19:31:28;10.60;99.90
32694;DHT22;19084;44.716;10.218;2022-11-14T19:34:16;10.60;99.90
32694;DHT22;19084;44.716;10.218;2022-11-14T19:37:05;10.60;99.90
32694;DHT22;19084;44.716;10.218;2022-11-14T19:39:55;10.50;99.90